sensor_id;sensor_type;location;lat;lon;timestamp;pressure;altitude;pressure_sealevel;temperature;humidity
26807;BME280;14380;49.910;6.792;2023-09-19T00:01:28;98297.16;;;17.51;100.00
26807;BME280;14380;49.910;6.792;2023-09-19T00:03:57;98300.25;;;17.27;100.00
26807;BME280;14380;49.910;6.792;2023-09-19T00:06:23;98313.31;;;17.30;100.00
26807;BME280;14380;49.910;6.792;2023-09-19T00:08:51;98309.94;;;17.18;100.00
26807;BME280;14380;49.910;6.792;2023-09-19T00:11:17;98312.00;;;17.05;100.00
26807;BME280;14380;49.910;6.792;2023-09-19T00:13:44;98314.72;;;17.15;100.00
26807;BME280;14380;49.910;6.792;2023-09-19T00:16:15;98313.47;;;17.29;100.00
26807;BME280;14380;49.910;6.792;2023-09-19T00:18:44;98319.34;;;17.32;100.00
26807;BME280;14380;49.910;6.792;2023-09-19T00:21:12;98320.06;;;17.44;100.00
26807;BME280;14380;49.910;6.792;2023-09-19T00:23:38;98325.66;;;17.21;100.00
26807;BME280;14380;49.910;6.792;2023-09-19T00:26:07;98325.13;;;17.47;100.00
26807;BME280;14380;49.910;6.792;2023-09-19T00:28:33;98325.38;;;17.24;100.00
26807;BME280;14380;49.910;6.792;2023-09-19T00:31:00;98329.75;;;17.26;100.00
26807;BME280;14380;49.910;6.792;2023-09-19T00:33:28;98327.66;;;17.39;100.00
26807;BME280;14380;49.910;6.792;2023-09-19T00:35:56;98323.16;;;17.20;100.00
26807;BME280;14380;49.910;6.792;2023-09-19T00:38:24;98326.53;;;17.22;100.00
26807;BME280;14380;49.910;6.792;2023-09-19T00:40:53;98329.16;;;17.12;100.00
26807;BME280;14380;49.910;6.792;2023-09-19T00:43:21;98325.28;;;16.95;100.00
26807;BME280;14380;49.910;6.792;2023-09-19T00:45:51;98320.94;;;16.94;100.00
26807;BME280;14380;49.910;6.792;2023-09-19T00:48:19;98332.81;;;16.70;100.00
26807;BME280;14380;49.910;6.792;2023-09-19T00:50:46;98333.28;;;16.85;100.00
26807;BME280;14380;49.910;6.792;2023-09-19T00:53:17;98332.16;;;16.88;100.00
26807;BME280;14380;49.910;6.792;2023-09-19T00:55:46;98340.38;;;16.75;100.00
26807;BME280;14380;49.910;6.792;2023-09-19T00:58:13;98338.28;;;16.78;100.00
26807;BME280;14380;49.910;6.792;2023-09-19T01:00:40;98336.47;;;16.79;100.00
26807;BME280;14380;49.910;6.792;2023-09-19T01:03:10;98344.72;;;16.66;100.00
26807;BME280;14380;49.910;6.792;2023-09-19T01:05:38;98348.88;;;16.59;100.00
26807;BME280;14380;49.910;6.792;2023-09-19T01:08:05;98350.75;;;16.68;100.00
26807;BME280;14380;49.910;6.792;2023-09-19T01:10:33;98352.53;;;16.58;100.00
26807;BME280;14380;49.910;6.792;2023-09-19T01:13:05;98357.94;;;16.46;100.00
26807;BME280;14380;49.910;6.792;2023-09-19T01:15:41;98363.81;;;16.19;100.00
26807;BME280;14380;49.910;6.792;2023-09-19T01:18:21;98367.84;;;16.34;100.00
26807;BME280;14380;49.910;6.792;2023-09-19T01:20:56;98362.38;;;16.15;100.00
26807;BME280;14380;49.910;6.792;2023-09-19T01:23:36;98365.31;;;16.33;100.00
26807;BME280;14380;49.910;6.792;2023-09-19T01:26:08;98371.66;;;16.42;100.00
26807;BME280;14380;49.910;6.792;2023-09-19T01:28:51;98367.53;;;16.59;100.00
26807;BME280;14380;49.910;6.792;2023-09-19T01:31:22;98377.06;;;16.30;100.00
26807;BME280;14380;49.910;6.792;2023-09-19T01:33:58;98381.16;;;16.34;100.00
26807;BME280;14380;49.910;6.792;2023-09-19T01:36:26;98374.25;;;16.53;100.00
26807;BME280;14380;49.910;6.792;2023-09-19T01:38:54;98373.41;;;16.53;100.00
26807;BME280;14380;49.910;6.792;2023-09-19T01:41:26;98373.09;;;16.46;100.00
26807;BME280;14380;49.910;6.792;2023-09-19T01:43:56;98379.00;;;16.49;100.00
26807;BME280;14380;49.910;6.792;2023-09-19T01:46:28;98377.38;;;16.37;100.00
26807;BME280;14380;49.910;6.792;2023-09-19T01:49:03;98381.84;;;16.58;100.00
26807;BME280;14380;49.910;6.792;2023-09-19T01:51:34;98381.09;;;16.46;100.00
26807;BME280;14380;49.910;6.792;2023-09-19T01:54:09;98385.09;;;16.40;100.00
26807;BME280;14380;49.910;6.792;2023-09-19T01:56:39;98383.16;;;16.21;100.00
26807;BME280;14380;49.910;6.792;2023-09-19T01:59:13;98377.91;;;16.52;100.00
26807;BME280;14380;49.910;6.792;2023-09-19T02:01:42;98385.06;;;16.61;100.00
26807;BME280;14380;49.910;6.792;2023-09-19T02:04:10;98380.13;;;16.47;100.00
26807;BME280;14380;49.910;6.792;2023-09-19T02:06:39;98383.97;;;16.33;100.00
26807;BME280;14380;49.910;6.792;2023-09-19T02:09:06;98378.00;;;16.50;100.00
26807;BME280;14380;49.910;6.792;2023-09-19T02:11:32;98386.06;;;16.39;100.00
26807;BME280;14380;49.910;6.792;2023-09-19T02:13:59;98391.06;;;16.54;100.00
26807;BME280;14380;49.910;6.792;2023-09-19T02:16:25;98390.03;;;16.66;100.00
26807;BME280;14380;49.910;6.792;2023-09-19T02:18:53;98391.03;;;16.75;100.00
26807;BME280;14380;49.910;6.792;2023-09-19T02:21:20;98382.06;;;16.76;100.00
26807;BME280;14380;49.910;6.792;2023-09-19T02:23:47;98394.50;;;16.65;100.00
26807;BME280;14380;49.910;6.792;2023-09-19T02:26:14;98399.13;;;16.63;100.00
26807;BME280;14380;49.910;6.792;2023-09-19T02:28:41;98402.44;;;16.56;100.00
26807;BME280;14380;49.910;6.792;2023-09-19T02:31:07;98402.94;;;16.71;100.00
26807;BME280;14380;49.910;6.792;2023-09-19T02:33:34;98406.84;;;16.67;100.00
26807;BME280;14380;49.910;6.792;2023-09-19T02:36:03;98403.22;;;16.68;100.00
26807;BME280;14380;49.910;6.792;2023-09-19T02:38:30;98403.84;;;16.81;100.00
26807;BME280;14380;49.910;6.792;2023-09-19T02:40:57;98408.28;;;16.71;100.00
26807;BME280;14380;49.910;6.792;2023-09-19T02:43:24;98408.44;;;16.69;100.00
26807;BME280;14380;49.910;6.792;2023-09-19T02:45:51;98416.44;;;16.27;100.00
26807;BME280;14380;49.910;6.792;2023-09-19T02:48:18;98414.25;;;16.11;100.00
26807;BME280;14380;49.910;6.792;2023-09-19T02:50:45;98411.13;;;16.48;100.00
26807;BME280;14380;49.910;6.792;2023-09-19T02:53:14;98415.09;;;16.63;100.00
26807;BME280;14380;49.910;6.792;2023-09-19T02:55:40;98411.66;;;16.73;100.00
26807;BME280;14380;49.910;6.792;2023-09-19T02:58:08;98411.63;;;16.63;100.00
26807;BME280;14380;49.910;6.792;2023-09-19T03:00:37;98421.19;;;16.44;100.00
26807;BME280;14380;49.910;6.792;2023-09-19T03:03:04;98421.22;;;16.75;100.00
26807;BME280;14380;49.910;6.792;2023-09-19T03:05:31;98415.75;;;16.77;100.00
26807;BME280;14380;49.910;6.792;2023-09-19T03:07:58;98427.75;;;16.40;100.00
26807;BME280;14380;49.910;6.792;2023-09-19T03:10:27;98437.41;;;16.41;100.00
26807;BME280;14380;49.910;6.792;2023-09-19T03:12:55;98429.06;;;16.77;100.00
26807;BME280;14380;49.910;6.792;2023-09-19T03:15:22;98435.97;;;16.58;100.00
26807;BME280;14380;49.910;6.792;2023-09-19T03:17:48;98444.38;;;16.75;100.00
26807;BME280;14380;49.910;6.792;2023-09-19T03:20:17;98434.94;;;16.71;100.00
26807;BME280;14380;49.910;6.792;2023-09-19T03:22:44;98434.47;;;16.65;100.00
26807;BME280;14380;49.910;6.792;2023-09-19T03:25:10;98432.41;;;16.69;100.00
26807;BME280;14380;49.910;6.792;2023-09-19T03:27:39;98433.19;;;16.60;100.00
26807;BME280;14380;49.910;6.792;2023-09-19T03:30:06;98429.75;;;16.69;100.00
26807;BME280;14380;49.910;6.792;2023-09-19T03:32:34;98431.63;;;16.57;100.00
26807;BME280;14380;49.910;6.792;2023-09-19T03:35:01;98426.63;;;16.64;100.00
26807;BME280;14380;49.910;6.792;2023-09-19T03:37:30;98431.84;;;16.44;100.00
26807;BME280;14380;49.910;6.792;2023-09-19T03:39:57;98424.91;;;16.11;100.00
26807;BME280;14380;49.910;6.792;2023-09-19T03:42:23;98428.19;;;16.45;100.00
26807;BME280;14380;49.910;6.792;2023-09-19T03:44:53;98429.53;;;16.30;100.00
26807;BME280;14380;49.910;6.792;2023-09-19T03:47:20;98426.84;;;16.30;100.00
26807;BME280;14380;49.910;6.792;2023-09-19T03:49:46;98416.19;;;16.30;100.00
26807;BME280;14380;49.910;6.792;2023-09-19T03:52:13;98409.50;;;16.35;100.00
26807;BME280;14380;49.910;6.792;2023-09-19T03:54:40;98410.22;;;16.38;100.00
26807;BME280;14380;49.910;6.792;2023-09-19T03:57:08;98423.13;;;16.21;100.00
26807;BME280;14380;49.910;6.792;2023-09-19T03:59:35;98419.44;;;16.33;100.00
26807;BME280;14380;49.910;6.792;2023-09-19T04:02:03;98415.66;;;16.15;100.00
26807;BME280;14380;49.910;6.792;2023-09-19T04:04:36;98422.34;;;16.09;100.00
26807;BME280;14380;49.910;6.792;2023-09-19T04:07:03;98410.47;;;16.13;100.00
26807;BME280;14380;49.910;6.792;2023-09-19T04:09:30;98412.03;;;15.83;100.00
26807;BME280;14380;49.910;6.792;2023-09-19T04:11:56;98418.63;;;16.00;100.00
26807;BME280;14380;49.910;6.792;2023-09-19T04:14:23;98425.25;;;16.06;100.00
26807;BME280;14380;49.910;6.792;2023-09-19T04:16:49;98420.53;;;16.10;100.00
26807;BME280;14380;49.910;6.792;2023-09-19T04:19:17;98420.59;;;15.98;100.00
26807;BME280;14380;49.910;6.792;2023-09-19T04:21:44;98421.13;;;16.13;100.00
26807;BME280;14380;49.910;6.792;2023-09-19T04:24:10;98422.84;;;16.03;100.00
26807;BME280;14380;49.910;6.792;2023-09-19T04:26:38;98426.41;;;15.92;100.00
26807;BME280;14380;49.910;6.792;2023-09-19T04:29:05;98432.56;;;15.93;100.00
26807;BME280;14380;49.910;6.792;2023-09-19T04:31:31;98438.28;;;15.88;100.00
26807;BME280;14380;49.910;6.792;2023-09-19T04:33:58;98439.81;;;15.58;100.00
26807;BME280;14380;49.910;6.792;2023-09-19T04:36:31;98440.94;;;15.88;100.00
26807;BME280;14380;49.910;6.792;2023-09-19T04:38:58;98448.19;;;15.97;100.00
26807;BME280;14380;49.910;6.792;2023-09-19T04:41:25;98440.91;;;15.99;100.00
26807;BME280;14380;49.910;6.792;2023-09-19T04:43:51;98451.06;;;16.05;100.00
26807;BME280;14380;49.910;6.792;2023-09-19T04:46:18;98454.31;;;16.09;100.00
26807;BME280;14380;49.910;6.792;2023-09-19T04:48:44;98456.94;;;15.88;100.00
26807;BME280;14380;49.910;6.792;2023-09-19T04:51:11;98461.13;;;15.90;100.00
26807;BME280;14380;49.910;6.792;2023-09-19T04:53:40;98464.47;;;15.60;100.00
26807;BME280;14380;49.910;6.792;2023-09-19T04:56:07;98467.72;;;15.75;100.00
26807;BME280;14380;49.910;6.792;2023-09-19T04:58:34;98468.97;;;16.03;100.00
26807;BME280;14380;49.910;6.792;2023-09-19T05:01:00;98469.25;;;15.77;100.00
26807;BME280;14380;49.910;6.792;2023-09-19T05:03:29;98463.94;;;15.89;100.00
26807;BME280;14380;49.910;6.792;2023-09-19T05:05:56;98468.53;;;15.87;100.00
26807;BME280;14380;49.910;6.792;2023-09-19T05:08:23;98473.88;;;15.87;100.00
26807;BME280;14380;49.910;6.792;2023-09-19T05:10:51;98470.28;;;15.65;100.00
26807;BME280;14380;49.910;6.792;2023-09-19T05:13:18;98462.56;;;15.51;100.00
26807;BME280;14380;49.910;6.792;2023-09-19T05:15:44;98471.59;;;15.59;100.00
26807;BME280;14380;49.910;6.792;2023-09-19T05:18:11;98468.53;;;15.75;100.00
26807;BME280;14380;49.910;6.792;2023-09-19T05:20:37;98479.72;;;15.58;100.00
26807;BME280;14380;49.910;6.792;2023-09-19T05:23:05;98476.19;;;15.69;100.00
26807;BME280;14380;49.910;6.792;2023-09-19T05:25:35;98479.25;;;15.41;100.00
26807;BME280;14380;49.910;6.792;2023-09-19T05:28:06;98484.56;;;15.41;100.00
26807;BME280;14380;49.910;6.792;2023-09-19T05:30:33;98474.09;;;15.72;100.00
26807;BME280;14380;49.910;6.792;2023-09-19T05:33:01;98481.91;;;15.41;100.00
26807;BME280;14380;49.910;6.792;2023-09-19T05:35:29;98483.72;;;15.52;100.00
26807;BME280;14380;49.910;6.792;2023-09-19T05:37:57;98495.06;;;15.54;100.00
26807;BME280;14380;49.910;6.792;2023-09-19T05:40:25;98492.56;;;15.41;100.00
26807;BME280;14380;49.910;6.792;2023-09-19T05:42:52;98488.34;;;15.27;100.00
26807;BME280;14380;49.910;6.792;2023-09-19T05:45:20;98492.06;;;15.59;100.00
26807;BME280;14380;49.910;6.792;2023-09-19T05:47:48;98495.53;;;15.71;100.00
26807;BME280;14380;49.910;6.792;2023-09-19T05:50:16;98496.53;;;15.58;100.00
26807;BME280;14380;49.910;6.792;2023-09-19T05:52:43;98487.66;;;15.81;100.00
26807;BME280;14380;49.910;6.792;2023-09-19T05:55:17;98500.03;;;15.59;100.00
26807;BME280;14380;49.910;6.792;2023-09-19T05:57:49;98507.03;;;15.71;100.00
26807;BME280;14380;49.910;6.792;2023-09-19T06:00:16;98520.38;;;15.60;100.00
26807;BME280;14380;49.910;6.792;2023-09-19T06:02:45;98521.28;;;15.70;100.00
26807;BME280;14380;49.910;6.792;2023-09-19T06:05:11;98531.84;;;15.72;100.00
26807;BME280;14380;49.910;6.792;2023-09-19T06:07:38;98536.31;;;15.71;100.00
26807;BME280;14380;49.910;6.792;2023-09-19T06:10:05;98530.84;;;15.84;100.00
26807;BME280;14380;49.910;6.792;2023-09-19T06:12:32;98527.97;;;15.53;100.00
26807;BME280;14380;49.910;6.792;2023-09-19T06:15:03;98537.06;;;15.62;100.00
26807;BME280;14380;49.910;6.792;2023-09-19T06:17:30;98542.47;;;15.72;100.00
26807;BME280;14380;49.910;6.792;2023-09-19T06:19:58;98543.69;;;15.79;100.00
26807;BME280;14380;49.910;6.792;2023-09-19T06:22:24;98543.59;;;15.58;100.00
26807;BME280;14380;49.910;6.792;2023-09-19T06:24:51;98553.84;;;15.74;100.00
26807;BME280;14380;49.910;6.792;2023-09-19T06:27:18;98555.56;;;15.41;100.00
26807;BME280;14380;49.910;6.792;2023-09-19T06:29:44;98561.59;;;15.66;100.00
26807;BME280;14380;49.910;6.792;2023-09-19T06:32:13;98554.34;;;15.56;100.00
26807;BME280;14380;49.910;6.792;2023-09-19T06:34:41;98568.13;;;15.27;100.00
26807;BME280;14380;49.910;6.792;2023-09-19T06:37:12;98569.59;;;15.43;100.00
26807;BME280;14380;49.910;6.792;2023-09-19T06:39:39;98572.09;;;15.79;100.00
26807;BME280;14380;49.910;6.792;2023-09-19T06:42:08;98575.41;;;15.59;100.00
26807;BME280;14380;49.910;6.792;2023-09-19T06:44:36;98579.41;;;15.54;100.00
26807;BME280;14380;49.910;6.792;2023-09-19T06:47:03;98576.94;;;15.85;100.00
26807;BME280;14380;49.910;6.792;2023-09-19T06:49:30;98588.47;;;15.74;100.00
26807;BME280;14380;49.910;6.792;2023-09-19T06:51:56;98592.47;;;15.91;100.00
26807;BME280;14380;49.910;6.792;2023-09-19T06:54:25;98599.59;;;15.90;100.00
26807;BME280;14380;49.910;6.792;2023-09-19T06:56:56;98599.09;;;15.97;100.00
26807;BME280;14380;49.910;6.792;2023-09-19T06:59:23;98596.81;;;15.92;100.00
26807;BME280;14380;49.910;6.792;2023-09-19T07:01:49;98609.03;;;15.83;100.00
26807;BME280;14380;49.910;6.792;2023-09-19T07:04:16;98607.56;;;15.90;100.00
26807;BME280;14380;49.910;6.792;2023-09-19T07:06:49;98603.94;;;15.91;100.00
26807;BME280;14380;49.910;6.792;2023-09-19T07:09:15;98614.09;;;15.98;100.00
26807;BME280;14380;49.910;6.792;2023-09-19T07:11:43;98620.41;;;15.97;100.00
26807;BME280;14380;49.910;6.792;2023-09-19T07:14:10;98615.31;;;15.94;100.00
26807;BME280;14380;49.910;6.792;2023-09-19T07:16:37;98618.59;;;15.97;100.00
26807;BME280;14380;49.910;6.792;2023-09-19T09:36:39;98667.19;;;18.55;93.58
26807;BME280;14380;49.910;6.792;2023-09-19T09:39:07;98678.91;;;18.54;96.45
26807;BME280;14380;49.910;6.792;2023-09-19T09:41:44;98678.75;;;18.56;94.48
26807;BME280;14380;49.910;6.792;2023-09-19T09:44:15;98677.44;;;18.40;96.68
26807;BME280;14380;49.910;6.792;2023-09-19T09:46:43;98673.84;;;18.81;94.41
26807;BME280;14380;49.910;6.792;2023-09-19T09:49:25;98674.44;;;18.84;93.46
26807;BME280;14380;49.910;6.792;2023-09-19T09:52:01;98668.97;;;18.96;93.79
26807;BME280;14380;49.910;6.792;2023-09-19T09:54:31;98670.63;;;19.16;90.84
26807;BME280;14380;49.910;6.792;2023-09-19T09:57:03;98667.78;;;18.79;91.43
26807;BME280;14380;49.910;6.792;2023-09-19T09:59:49;98666.97;;;19.27;90.62
26807;BME280;14380;49.910;6.792;2023-09-19T10:02:17;98665.13;;;18.69;87.38
26807;BME280;14380;49.910;6.792;2023-09-19T10:04:54;98662.63;;;19.16;86.92
26807;BME280;14380;49.910;6.792;2023-09-19T10:07:35;98655.25;;;19.28;86.10
26807;BME280;14380;49.910;6.792;2023-09-19T10:10:06;98661.75;;;19.83;86.65
26807;BME280;14380;49.910;6.792;2023-09-19T10:12:44;98660.41;;;20.35;88.47
26807;BME280;14380;49.910;6.792;2023-09-19T10:15:14;98654.16;;;19.88;86.25
26807;BME280;14380;49.910;6.792;2023-09-19T10:17:42;98654.13;;;20.26;85.41
26807;BME280;14380;49.910;6.792;2023-09-19T10:20:12;98662.75;;;20.20;84.96
26807;BME280;14380;49.910;6.792;2023-09-19T10:23:06;98641.94;;;20.32;83.78
26807;BME280;14380;49.910;6.792;2023-09-19T10:25:36;98658.69;;;20.16;81.09
26807;BME280;14380;49.910;6.792;2023-09-19T10:28:05;98645.75;;;20.75;80.64
26807;BME280;14380;49.910;6.792;2023-09-19T10:30:36;98650.88;;;20.69;84.35
26807;BME280;14380;49.910;6.792;2023-09-19T10:33:04;98636.69;;;19.74;81.04
26807;BME280;14380;49.910;6.792;2023-09-19T10:35:32;98646.81;;;20.18;83.94
26807;BME280;14380;49.910;6.792;2023-09-19T10:38:01;98644.25;;;20.45;81.26
26807;BME280;14380;49.910;6.792;2023-09-19T10:40:28;98629.22;;;20.34;79.34
26807;BME280;14380;49.910;6.792;2023-09-19T10:43:02;98637.59;;;20.67;82.83
26807;BME280;14380;49.910;6.792;2023-09-19T10:45:33;98633.56;;;20.17;78.88
26807;BME280;14380;49.910;6.792;2023-09-19T10:48:00;98633.72;;;20.79;80.24
26807;BME280;14380;49.910;6.792;2023-09-19T10:50:30;98632.03;;;20.60;77.91
26807;BME280;14380;49.910;6.792;2023-09-19T10:53:03;98629.06;;;20.82;81.52
26807;BME280;14380;49.910;6.792;2023-09-19T10:55:33;98630.81;;;20.27;82.99
26807;BME280;14380;49.910;6.792;2023-09-19T10:58:01;98634.47;;;20.72;79.82
26807;BME280;14380;49.910;6.792;2023-09-19T11:00:50;98636.69;;;20.40;81.36
26807;BME280;14380;49.910;6.792;2023-09-19T11:03:18;98630.19;;;19.77;81.82
26807;BME280;14380;49.910;6.792;2023-09-19T11:06:09;98634.50;;;20.90;81.32
26807;BME280;14380;49.910;6.792;2023-09-19T11:11:49;98625.59;;;20.89;78.86
26807;BME280;14380;49.910;6.792;2023-09-19T11:14:29;98629.25;;;21.06;79.09
26807;BME280;14380;49.910;6.792;2023-09-19T11:23:20;98630.41;;;20.49;75.74
26807;BME280;14380;49.910;6.792;2023-09-19T11:25:52;98619.00;;;21.02;77.22
26807;BME280;14380;49.910;6.792;2023-09-19T11:28:33;98621.56;;;21.12;77.01
26807;BME280;14380;49.910;6.792;2023-09-19T11:36:57;98614.06;;;21.15;74.50
26807;BME280;14380;49.910;6.792;2023-09-19T11:39:26;98617.81;;;21.04;75.14
26807;BME280;14380;49.910;6.792;2023-09-19T11:41:55;98618.38;;;21.08;76.16
26807;BME280;14380;49.910;6.792;2023-09-19T11:44:33;98612.56;;;20.94;73.48
26807;BME280;14380;49.910;6.792;2023-09-19T11:47:04;98622.59;;;20.74;72.63
26807;BME280;14380;49.910;6.792;2023-09-19T11:49:31;98619.88;;;20.38;73.23
26807;BME280;14380;49.910;6.792;2023-09-19T11:52:00;98626.78;;;20.59;73.16
26807;BME280;14380;49.910;6.792;2023-09-19T11:54:30;98615.69;;;21.08;72.83
26807;BME280;14380;49.910;6.792;2023-09-19T11:57:00;98615.47;;;20.83;72.84
26807;BME280;14380;49.910;6.792;2023-09-19T11:59:28;98616.44;;;20.46;75.36
26807;BME280;14380;49.910;6.792;2023-09-19T12:01:56;98614.63;;;20.18;76.07
26807;BME280;14380;49.910;6.792;2023-09-19T12:04:36;98613.69;;;20.56;75.28
26807;BME280;14380;49.910;6.792;2023-09-19T12:07:05;98607.50;;;20.91;73.07
26807;BME280;14380;49.910;6.792;2023-09-19T12:09:38;98598.59;;;20.73;73.58
26807;BME280;14380;49.910;6.792;2023-09-19T12:12:06;98609.34;;;20.73;73.76
26807;BME280;14380;49.910;6.792;2023-09-19T12:14:34;98613.31;;;21.05;72.27
26807;BME280;14380;49.910;6.792;2023-09-19T12:17:01;98617.75;;;20.60;73.93
26807;BME280;14380;49.910;6.792;2023-09-19T12:19:28;98610.47;;;20.34;73.17
26807;BME280;14380;49.910;6.792;2023-09-19T12:21:56;98614.81;;;20.35;74.63
26807;BME280;14380;49.910;6.792;2023-09-19T12:24:24;98611.06;;;20.28;75.29
26807;BME280;14380;49.910;6.792;2023-09-19T12:26:59;98602.19;;;20.63;74.21
26807;BME280;14380;49.910;6.792;2023-09-19T12:29:28;98610.41;;;20.80;73.90
26807;BME280;14380;49.910;6.792;2023-09-19T12:31:57;98608.13;;;20.85;71.10
26807;BME280;14380;49.910;6.792;2023-09-19T12:34:25;98608.41;;;20.82;72.94
26807;BME280;14380;49.910;6.792;2023-09-19T12:37:04;98609.22;;;21.19;73.46
26807;BME280;14380;49.910;6.792;2023-09-19T12:39:30;98602.19;;;21.00;71.95
26807;BME280;14380;49.910;6.792;2023-09-19T12:41:57;98606.81;;;20.89;71.00
26807;BME280;14380;49.910;6.792;2023-09-19T12:44:24;98608.06;;;21.21;70.57
26807;BME280;14380;49.910;6.792;2023-09-19T12:46:52;98606.13;;;20.87;68.41
26807;BME280;14380;49.910;6.792;2023-09-19T12:49:20;98597.22;;;21.05;70.03
26807;BME280;14380;49.910;6.792;2023-09-19T12:51:48;98595.22;;;21.33;69.85
26807;BME280;14380;49.910;6.792;2023-09-19T12:54:15;98596.91;;;21.08;70.17
26807;BME280;14380;49.910;6.792;2023-09-19T12:56:43;98597.69;;;21.53;70.02
26807;BME280;14380;49.910;6.792;2023-09-19T12:59:13;98581.78;;;21.60;69.54
26807;BME280;14380;49.910;6.792;2023-09-19T13:01:40;98587.38;;;21.66;71.35
26807;BME280;14380;49.910;6.792;2023-09-19T13:04:13;98577.50;;;21.75;69.19
26807;BME280;14380;49.910;6.792;2023-09-19T13:06:43;98584.38;;;21.17;68.50
26807;BME280;14380;49.910;6.792;2023-09-19T13:09:10;98584.94;;;21.55;70.95
26807;BME280;14380;49.910;6.792;2023-09-19T13:11:40;98590.19;;;20.86;69.83
26807;BME280;14380;49.910;6.792;2023-09-19T13:14:17;98586.53;;;21.39;68.28
26807;BME280;14380;49.910;6.792;2023-09-19T13:16:56;98574.44;;;21.44;68.51
26807;BME280;14380;49.910;6.792;2023-09-19T13:19:41;98575.22;;;21.89;66.90
26807;BME280;14380;49.910;6.792;2023-09-19T13:22:37;98563.22;;;22.26;66.74
26807;BME280;14380;49.910;6.792;2023-09-19T13:25:05;98567.75;;;22.25;67.60
26807;BME280;14380;49.910;6.792;2023-09-19T13:27:33;98558.31;;;22.13;67.33
26807;BME280;14380;49.910;6.792;2023-09-19T13:30:00;98562.88;;;22.29;66.60
26807;BME280;14380;49.910;6.792;2023-09-19T13:32:26;98558.69;;;22.43;67.36
26807;BME280;14380;49.910;6.792;2023-09-19T13:34:55;98548.47;;;22.63;65.16
26807;BME280;14380;49.910;6.792;2023-09-19T13:37:21;98559.84;;;22.24;68.69
26807;BME280;14380;49.910;6.792;2023-09-19T13:39:47;98554.41;;;21.99;67.67
26807;BME280;14380;49.910;6.792;2023-09-19T13:42:14;98557.31;;;22.31;66.12
26807;BME280;14380;49.910;6.792;2023-09-19T13:44:41;98552.16;;;22.54;66.30
26807;BME280;14380;49.910;6.792;2023-09-19T13:47:08;98557.72;;;22.52;65.18
26807;BME280;14380;49.910;6.792;2023-09-19T13:49:38;98560.28;;;22.03;67.20
26807;BME280;14380;49.910;6.792;2023-09-19T13:52:06;98558.78;;;22.00;67.98
26807;BME280;14380;49.910;6.792;2023-09-19T13:54:32;98549.53;;;22.03;67.45
26807;BME280;14380;49.910;6.792;2023-09-19T13:56:59;98544.28;;;22.69;70.79
26807;BME280;14380;49.910;6.792;2023-09-19T13:59:26;98552.06;;;22.04;67.64
26807;BME280;14380;49.910;6.792;2023-09-19T14:01:54;98535.66;;;22.40;68.48
26807;BME280;14380;49.910;6.792;2023-09-19T14:04:21;98540.75;;;22.43;69.29
26807;BME280;14380;49.910;6.792;2023-09-19T14:06:47;98535.44;;;22.09;68.34
26807;BME280;14380;49.910;6.792;2023-09-19T14:09:15;98530.69;;;21.94;68.50
26807;BME280;14380;49.910;6.792;2023-09-19T14:11:44;98532.63;;;22.35;69.32
26807;BME280;14380;49.910;6.792;2023-09-19T14:14:12;98523.69;;;22.35;69.10
26807;BME280;14380;49.910;6.792;2023-09-19T14:16:40;98529.22;;;22.17;70.40
26807;BME280;14380;49.910;6.792;2023-09-19T14:19:07;98528.50;;;21.90;68.80
26807;BME280;14380;49.910;6.792;2023-09-19T14:21:34;98522.03;;;22.25;69.86
26807;BME280;14380;49.910;6.792;2023-09-19T14:24:01;98514.97;;;22.24;71.00
26807;BME280;14380;49.910;6.792;2023-09-19T14:26:29;98503.53;;;22.31;69.54
26807;BME280;14380;49.910;6.792;2023-09-19T14:28:56;98498.16;;;22.31;69.56
26807;BME280;14380;49.910;6.792;2023-09-19T14:31:22;98506.44;;;22.54;71.33
26807;BME280;14380;49.910;6.792;2023-09-19T14:33:53;98498.69;;;22.84;70.50
26807;BME280;14380;49.910;6.792;2023-09-19T14:36:20;98495.78;;;23.02;70.69
26807;BME280;14380;49.910;6.792;2023-09-19T14:38:47;98498.97;;;22.97;71.37
26807;BME280;14380;49.910;6.792;2023-09-19T14:41:13;98497.81;;;22.83;69.91
26807;BME280;14380;49.910;6.792;2023-09-19T14:43:41;98489.75;;;22.92;69.20
26807;BME280;14380;49.910;6.792;2023-09-19T14:46:08;98486.06;;;22.76;70.77
26807;BME280;14380;49.910;6.792;2023-09-19T14:48:35;98490.81;;;22.66;74.21
26807;BME280;14380;49.910;6.792;2023-09-19T14:51:02;98492.63;;;22.73;71.65
26807;BME280;14380;49.910;6.792;2023-09-19T14:53:29;98490.31;;;22.46;71.24
26807;BME280;14380;49.910;6.792;2023-09-19T14:55:55;98501.38;;;22.67;70.30
26807;BME280;14380;49.910;6.792;2023-09-19T14:58:22;98488.94;;;22.41;72.61
26807;BME280;14380;49.910;6.792;2023-09-19T15:00:52;98488.44;;;22.54;72.52
26807;BME280;14380;49.910;6.792;2023-09-19T15:03:19;98496.31;;;22.39;73.99
26807;BME280;14380;49.910;6.792;2023-09-19T15:05:46;98504.19;;;22.08;71.66
26807;BME280;14380;49.910;6.792;2023-09-19T15:08:13;98504.38;;;22.31;76.71
26807;BME280;14380;49.910;6.792;2023-09-19T15:10:39;98499.69;;;22.33;71.53
26807;BME280;14380;49.910;6.792;2023-09-19T15:13:07;98501.84;;;22.38;73.62
26807;BME280;14380;49.910;6.792;2023-09-19T15:15:34;98496.50;;;22.46;70.92
26807;BME280;14380;49.910;6.792;2023-09-19T15:18:01;98496.13;;;22.41;74.05
26807;BME280;14380;49.910;6.792;2023-09-19T15:20:28;98497.00;;;22.33;74.41
26807;BME280;14380;49.910;6.792;2023-09-19T15:22:56;98490.28;;;22.62;73.06
26807;BME280;14380;49.910;6.792;2023-09-19T15:25:22;98482.88;;;22.64;71.13
26807;BME280;14380;49.910;6.792;2023-09-19T15:27:49;98476.69;;;22.64;72.57
26807;BME280;14380;49.910;6.792;2023-09-19T15:30:16;98474.25;;;22.94;71.63
26807;BME280;14380;49.910;6.792;2023-09-19T15:32:42;98480.03;;;22.49;73.43
26807;BME280;14380;49.910;6.792;2023-09-19T15:35:10;98482.22;;;22.46;70.92
26807;BME280;14380;49.910;6.792;2023-09-19T15:37:39;98487.88;;;22.01;72.31